Arlington, NC

2:07 PM EDT on August 22, 2014 (GMT -0400)
The Day Family of Pleasant Hill | Change Station
CLOSE
Current Station
Personal Weather Station
Location: Elkin, NC
Elevation: 1196 ft
Nearby Weather Stations

Elev 1196 ft 36.26 °N, 80.90 °W | Updated 4 seconds ago

Clear
Clear
83.2 °F
Feels Like 90 °F
N
0.0
Wind Variable Wind from NW
Gusts 0.0 mph

Today
High -- | Low -- °F
--% Chance of Precip.
Yesterday
High -- | Low -- °F
Precip. -- in
6:46 AM 8:04 PM
Waning Crescent, 7% visible
Pressure 30.12 in
Visibility 10.0 miles
Clouds Clear
Heat Index 90 °F
Dew Point 74 °F
Humidity 74%
Rainfall 0.00 in
Snow Depth Not available.
UV 11 out of 12
Pollen 9.00 out of 12
Ozone Good
PM2.5 Moderate
Flu Activity Not available.
METAR KUKF 221755Z AUTO 26005KT 10SM CLR 30/21 A3012 RMK AO2

More Conditions Fewer Conditions

Pressure 30.12 in
Visibility 10.0 miles
Clouds Clear
Heat Index 90 °F
Dew Point 74 °F
Humidity 74%
Rainfall 0.00 in
Snow Depth Not available.
UV 11 out of 12
Pollen 9.00 out of 12
Ozone Good
PM2.5 Moderate
Flu Activity Not available.
METAR KUKF 221755Z AUTO 26005KT 10SM CLR 30/21 A3012 RMK AO2

More Conditions Fewer Conditions

10-Day Weather Forecast

Almanac

Astronomy

Aug. 22, 2014 Rise Set
Actual Time 6:46 AM EDT 8:04 PM EDT
Civil Twilight 6:19 AM EDT 8:31 PM EDT
Nautical Twilight 5:47 AM EDT 9:03 PM EDT
Astronomical Twilight 5:14 AM EDT 9:36 PM EDT
Moon 4:10 AM EDT 6:10 PM EDT
Length of Visible Light 14h 11m
Length of Day
13h 17m
Tomorrow will be 2m 6s shorter.
Waning Crescent, 7% of the Moon is Illuminated
Today
Waning Crescent
Aug 25
New
Sep 2
First Quarter
Sep 8
Full
Sep 15
Last Quarter

Today's Extremes

State Highs State Lows

Community

WunderPhotos

Upload Photos

1,746,213 photos uploaded!

WunderBlogs® & News

Nearby

Air Quality

  Air Quality AQ Index Pollutant
Yesterday Moderate
OZONE
Yesterday Good
PM2.5
Current Moderate
PM2.5
Current Good
OZONE
Friday Moderate
PM2.5
Friday Good
OZONE
Saturday Good
PM2.5
Saturday Good
OZONE
Sunday Good
PM2.5
Sunday Good
OZONE

Snow Depth

Station Depth Elevation
No new snow has been reported.

Earthquake Activity

City Distance Mag. Time & Date
No recent earthquake activity has been reported nearby.
Minimum magnitude displayed is 2.5.

Coastal Water Temperatures

Place Temperature
No Stations Reporting

Nearby Weather Stations